Knightsen, California
Current Conditions -  °F | °C
As of 8:02 AM on Friday 28 Nov 2014 (Local Time) from KLVK Reporting Station
Haze Haze  
Wind Chill: 43°   Ceiling: 900
Heat Index: 43°   Visibility: 0.75mi
Dew Point: 39°   Wind: 3mph
Humidity: 87%   Direction: 70°ENE
Pressure: 30.03"   Gusts: NA
Location:  37.97°N, 121.67°W
Report Text: KLVK 281602Z 07003KT 3/4SM BR SCT004 OVC009 06/04 A3003 RMK AO2
Loading
Personal Weather Stations






























Interactive Weather Map New forecast layout! Learn more

10-Day Weather Forecast

Advertisements
Track Severe Weather on mobile